Time;durP1;ratioP1;P1;durP2;ratioP2;P2;SDS_P1;SDS_P2;PMS_P1;PMS_P2;Temp;Humidity;BMP_temperature;BMP_pressure;BME280_temperature;BME280_humidity;BME280_pressure;Samples;Min_cycle;Max_cycle;Signal;HPM_P1;HPM_P2
2021/05/23 00:01:11;;;;;;;1.77;1.60;;;;;;;16.76;38.98;100255.13;5014198;28;20383;-72
2021/05/23 00:03:39;;;;;;;2.70;1.70;;;;;;;16.75;39.70;100255.53;5014186;28;20057;-73
2021/05/23 00:06:05;;;;;;;1.52;1.35;;;;;;;16.88;39.09;100251.06;5014131;28;20032;-73
2021/05/23 00:08:31;;;;;;;3.15;1.55;;;;;;;16.84;40.10;100249.50;5013759;28;20406;-73
2021/05/23 00:10:59;;;;;;;1.70;1.60;;;;;;;16.93;39.93;100252.69;5013939;28;20374;-73
2021/05/23 00:13:37;;;;;;;3.70;1.25;;;;;;;16.83;40.15;100250.69;5013908;28;20032;-74
2021/05/23 00:16:03;;;;;;;3.33;1.23;;;;;;;16.71;40.44;100249.09;5015384;28;20026;-74
2021/05/23 00:18:32;;;;;;;1.73;1.55;;;;;;;16.75;40.60;100255.53;5013684;28;20491;-74
2021/05/23 00:20:58;;;;;;;2.53;1.45;;;;;;;16.65;41.39;100245.88;5014089;28;20053;-73
2021/05/23 00:23:24;;;;;;;1.60;1.50;;;;;;;16.66;41.17;100243.84;5014722;28;20468;-73
2021/05/23 00:25:52;;;;;;;1.40;1.30;;;;;;;16.61;40.89;100247.88;5013671;28;20029;-74
2021/05/23 00:28:24;;;;;;;1.42;1.30;;;;;;;16.61;40.88;100247.88;5014965;28;20037;-75
2021/05/23 00:30:50;;;;;;;1.25;1.13;;;;;;;16.54;40.90;100255.50;5013568;28;20473;-74
2021/05/23 00:33:16;;;;;;;3.30;1.23;;;;;;;16.46;41.05;100249.09;5013449;28;20028;-74
2021/05/23 00:35:42;;;;;;;1.45;1.33;;;;;;;16.34;41.16;100241.06;5013471;28;20025;-73
2021/05/23 00:38:09;;;;;;;1.30;1.10;;;;;;;16.39;41.14;100252.69;5014260;28;20033;-73
2021/05/23 00:40:36;;;;;;;4.68;1.35;;;;;;;16.54;40.28;100239.47;5013440;28;20032;-73
2021/05/23 00:43:13;;;;;;;1.42;1.33;;;;;;;16.59;40.36;100253.09;5012529;28;20484;-73
2021/05/23 00:45:42;;;;;;;1.20;1.10;;;;;;;16.35;40.53;100221.03;5013140;28;20022;-74
2021/05/23 00:48:08;;;;;;;1.40;1.30;;;;;;;16.60;40.47;100249.09;5013370;28;20026;-72
2021/05/23 00:50:35;;;;;;;3.25;1.35;;;;;;;16.58;40.30;100256.31;5013183;28;20030;-74
2021/05/23 00:53:02;;;;;;;1.20;1.10;;;;;;;16.50;40.34;100250.69;5013537;28;20096;-73
2021/05/23 00:55:28;;;;;;;1.33;1.00;;;;;;;16.50;40.46;100256.31;5012681;28;20052;-73
2021/05/23 00:57:54;;;;;;;1.30;1.20;;;;;;;16.44;40.57;100259.91;5013187;28;20029;-73
2021/05/23 01:00:41;;;;;;;1.45;1.20;;;;;;;16.37;40.73;100259.94;5013160;28;20455;-73
2021/05/23 01:03:25;;;;;;;1.52;1.13;;;;;;;16.27;41.09;100252.28;5013177;28;20393;-73
2021/05/23 01:05:52;;;;;;;0.80;0.80;;;;;;;16.22;40.92;100259.91;5012884;28;20022;-74
2021/05/23 01:08:17;;;;;;;0.80;0.80;;;;;;;16.32;40.18;100260.31;5013302;28;20018;-74
2021/05/23 01:10:56;;;;;;;1.90;1.02;;;;;;;16.37;40.31;100262.72;5012614;28;20369;-73
2021/05/23 01:14:01;;;;;;;0.90;0.90;;;;;;;16.36;40.76;100261.13;5012858;28;20487;-74
2021/05/23 01:16:35;;;;;;;1.17;1.08;;;;;;;16.26;41.00;100256.31;5012860;28;20457;-73
2021/05/23 01:19:13;;;;;;;1.48;1.17;;;;;;;16.31;41.04;100265.13;5013181;28;20140;-73
2021/05/23 01:21:44;;;;;;;1.42;1.13;;;;;;;16.39;41.35;100263.13;5012617;28;20026;-74
2021/05/23 01:24:39;;;;;;;1.65;1.25;;;;;;;16.33;41.55;100256.31;5012892;28;20076;-74
2021/05/23 01:27:07;;;;;;;0.98;0.98;;;;;;;16.21;41.57;100255.50;5012530;28;20032;-74
2021/05/23 01:29:33;;;;;;;1.73;1.13;;;;;;;16.19;41.90;100257.91;5013734;28;20400;-74
2021/05/23 01:31:59;;;;;;;3.00;0.90;;;;;;;16.12;41.80;100260.69;5013839;28;20092;-74
2021/05/23 01:34:25;;;;;;;1.05;0.90;;;;;;;16.23;41.83;100253.09;5011918;28;20101;-72
2021/05/23 02:13:54;;;;;;;1.25;1.02;;;;;;;15.87;42.65;100245.81;4939348;28;20080;-73
2021/05/23 02:16:20;;;;;;;1.73;1.25;;;;;;;15.92;42.15;100242.59;5012223;28;20073;-73
2021/05/23 02:18:46;;;;;;;2.42;1.40;;;;;;;15.90;42.20;100259.06;5011997;28;20048;-74
2021/05/23 02:21:14;;;;;;;4.38;2.03;;;;;;;15.94;41.99;100251.44;5011808;28;20037;-74
2021/05/23 02:23:54;;;;;;;1.38;1.27;;;;;;;15.90;41.72;100251.44;5012143;28;20018;-73
2021/05/23 02:26:21;;;;;;;1.55;1.40;;;;;;;15.90;42.34;100256.25;5011779;28;20018;-74
2021/05/23 02:28:55;;;;;;;1.88;1.38;;;;;;;15.96;42.19;100249.03;5012095;28;20345;-75
2021/05/23 02:31:21;;;;;;;5.85;5.03;;;;;;;15.92;42.33;100253.84;5012044;28;20033;-73
2021/05/23 02:33:47;;;;;;;20.13;17.60;;;;;;;15.83;43.04;100245.00;5011810;28;20628;-74
2021/05/23 02:36:15;;;;;;;15.32;13.75;;;;;;;15.96;42.82;100254.66;5011301;28;20038;-74
2021/05/23 02:38:40;;;;;;;11.80;10.43;;;;;;;15.87;42.47;100254.22;5011840;28;20084;-74
2021/05/23 02:41:06;;;;;;;13.40;12.00;;;;;;;15.82;43.08;100260.22;5011832;28;20029;-74
2021/05/23 02:43:32;;;;;;;6.90;6.15;;;;;;;15.86;42.82;100263.84;5011943;28;20117;-74
2021/05/23 02:46:01;;;;;;;6.53;5.93;;;;;;;15.87;42.63;100262.63;5011653;28;20025;-74
2021/05/23 02:48:26;;;;;;;7.88;7.13;;;;;;;15.71;43.40;100266.63;5011683;28;20030;-74
2021/05/23 02:50:53;;;;;;;10.48;9.38;;;;;;;15.71;43.23;100265.81;5011683;28;20469;-75
2021/05/23 02:53:19;;;;;;;19.80;17.80;;;;;;;15.63;42.90;100264.19;5011522;28;20353;-74
2021/05/23 02:55:47;;;;;;;19.92;17.92;;;;;;;15.69;43.19;100263.41;5011824;28;20026;-74
2021/05/23 02:58:15;;;;;;;15.85;14.25;;;;;;;15.71;42.64;100269.44;5011655;28;20029;-74
2021/05/23 03:00:42;;;;;;;9.77;8.77;;;;;;;15.70;42.54;100273.41;5011688;28;20113;-73
2021/05/23 03:03:09;;;;;;;6.05;5.53;;;;;;;15.77;42.17;100275.47;5011751;28;20021;-73
2021/05/23 03:05:35;;;;;;;4.53;3.00;;;;;;;15.68;42.20;100273.00;5013041;28;20030;-73
2021/05/23 03:08:00;;;;;;;5.75;5.25;;;;;;;15.72;42.20;100275.84;5015193;28;20423;-73
2021/05/23 03:10:27;;;;;;;7.15;6.32;;;;;;;15.62;42.50;100277.38;4998943;28;20022;-73
2021/05/23 03:12:55;;;;;;;7.75;6.85;;;;;;;15.61;42.25;100272.97;5015165;28;20026;-74
2021/05/23 03:15:23;;;;;;;8.88;6.88;;;;;;;15.59;42.71;100275.34;5015004;28;20100;-73
2021/05/23 03:17:49;;;;;;;9.35;8.48;;;;;;;15.56;42.70;100278.97;5015431;28;20536;-73
2021/05/23 03:20:17;;;;;;;6.35;5.18;;;;;;;15.68;42.44;100278.63;5015324;28;20042;-74
2021/05/23 03:22:44;;;;;;;9.50;5.43;;;;;;;15.67;43.07;100288.25;5016608;28;20049;-73
2021/05/23 03:25:14;;;;;;;4.70;4.22;;;;;;;15.70;43.05;100293.03;5014468;28;20524;-72
2021/05/23 03:27:40;;;;;;;6.43;4.38;;;;;;;15.65;42.71;100287.81;5016065;28;20104;-72
2021/05/23 03:30:08;;;;;;;5.18;3.88;;;;;;;15.69;42.85;100283.03;5014566;28;20120;-74
2021/05/23 03:32:34;;;;;;;2.90;2.60;;;;;;;15.79;42.63;100278.66;5014789;28;20028;-74
2021/05/23 03:34:59;;;;;;;2.47;2.10;;;;;;;15.73;43.04;100282.25;5014876;28;20120;-72
2021/05/23 03:37:25;;;;;;;5.05;2.08;;;;;;;15.73;42.48;100279.44;5014546;28;20570;-73
2021/05/23 03:39:51;;;;;;;4.28;3.88;;;;;;;15.78;41.82;100277.06;5014771;28;20367;-74
2021/05/23 03:42:16;;;;;;;6.63;5.80;;;;;;;15.74;42.03;100270.63;5014403;28;20022;-74
2021/05/23 03:44:42;;;;;;;7.55;5.00;;;;;;;15.78;41.96;100279.06;5014465;28;20038;-73
2021/05/23 03:47:08;;;;;;;3.22;2.97;;;;;;;15.91;41.79;100283.91;5014359;28;20032;-73
2021/05/23 03:49:37;;;;;;;4.10;3.40;;;;;;;15.87;42.38;100291.53;5014214;28;20026;-73
2021/05/23 03:52:08;;;;;;;5.80;4.30;;;;;;;15.94;41.80;100285.94;5014370;28;20034;-74
2021/05/23 03:54:34;;;;;;;6.15;5.55;;;;;;;16.04;41.84;100306.81;5014440;28;20129;-74
2021/05/23 03:57:00;;;;;;;6.40;5.68;;;;;;;16.11;41.70;100301.19;5014053;28;20042;-75
2021/05/23 03:59:26;;;;;;;6.63;4.65;;;;;;;15.99;41.91;100270.72;5013769;28;20109;-73
2021/05/23 04:01:52;;;;;;;5.68;3.17;;;;;;;16.31;41.35;100300.84;5013763;28;20457;-73
2021/05/23 04:04:21;;;;;;;3.95;3.17;;;;;;;16.40;41.08;100306.84;5014194;28;20021;-73
2021/05/23 04:06:47;;;;;;;7.88;2.75;;;;;;;16.49;41.29;100304.47;5014078;28;20018;-75
2021/05/23 04:09:14;;;;;;;4.80;1.83;;;;;;;16.86;41.00;100300.47;5015358;28;20026;-73
2021/05/23 04:11:42;;;;;;;5.38;2.45;;;;;;;17.14;40.60;100311.66;5014030;28;20519;-73
2021/05/23 04:14:10;;;;;;;3.75;2.10;;;;;;;17.43;39.45;100306.00;5014045;28;20053;-73
2021/05/23 04:16:35;;;;;;;5.43;2.13;;;;;;;17.63;38.72;100309.13;5013939;28;20033;-72
2021/05/23 04:19:01;;;;;;;2.85;1.83;;;;;;;17.87;38.13;100301.81;5014150;28;20040;-73
2021/05/23 04:21:26;;;;;;;5.38;3.53;;;;;;;18.14;38.00;100314.13;5013862;28;20349;-73
2021/05/23 04:23:55;;;;;;;3.63;3.25;;;;;;;18.43;37.61;100300.69;5014112;28;20355;-73
2021/05/23 04:26:22;;;;;;;3.70;3.17;;;;;;;18.71;37.81;100299.69;5013716;28;20456;-72
2021/05/23 04:28:48;;;;;;;4.90;3.75;;;;;;;19.05;37.49;100307.41;5013270;28;20030;-74
2021/05/23 04:31:13;;;;;;;2.40;1.40;;;;;;;19.16;36.65;100308.09;5013758;28;20022;-71
2021/05/23 04:33:42;;;;;;;2.15;1.35;;;;;;;19.60;36.10;100310.09;5013623;28;20034;-73
2021/05/23 04:36:08;;;;;;;3.60;1.63;;;;;;;20.02;36.01;100307.91;5013714;28;20032;-73
2021/05/23 04:38:33;;;;;;;6.97;1.40;;;;;;;20.26;35.07;100297.50;5013485;28;20021;-73
2021/05/23 04:41:02;;;;;;;1.75;1.10;;;;;;;20.27;34.86;100313.22;5013720;28;20065;-72
2021/05/23 04:43:27;;;;;;;2.42;1.70;;;;;;;20.89;34.61;100320.34;5013524;28;20030;-71
2021/05/23 04:45:53;;;;;;;7.20;1.63;;;;;;;21.31;33.57;100315.16;5013662;28;20491;-74
2021/05/23 04:48:18;;;;;;;2.08;1.48;;;;;;;21.55;33.09;100326.44;5012699;28;20389;-71
2021/05/23 04:50:44;;;;;;;5.65;1.80;;;;;;;21.90;32.93;100320.03;5013168;28;20029;-72
2021/05/23 04:53:10;;;;;;;4.45;1.42;;;;;;;22.36;32.31;100335.22;5013501;28;20029;-73
2021/05/23 04:55:35;;;;;;;1.90;1.23;;;;;;;22.73;31.76;100335.97;5013194;28;20123;-73
2021/05/23 04:58:02;;;;;;;1.95;1.42;;;;;;;22.89;31.04;100324.66;5013218;28;20508;-73
2021/05/23 05:00:28;;;;;;;1.85;1.23;;;;;;;23.47;30.64;100332.47;5012998;28;20026;-75
2021/05/23 05:02:54;;;;;;;2.67;1.80;;;;;;;23.70;30.50;100332.25;5013143;28;20034;-72
2021/05/23 05:05:20;;;;;;;4.05;1.13;;;;;;;23.61;29.73;100336.97;5013162;28;20101;-75
2021/05/23 05:07:45;;;;;;;3.30;2.30;;;;;;;23.37;29.92;100330.72;5012928;28;20040;-71
2021/05/23 05:10:12;;;;;;;1.83;1.30;;;;;;;23.97;29.56;100319.69;5013063;28;20026;-74
2021/05/23 05:12:38;;;;;;;3.22;2.30;;;;;;;23.13;32.44;100322.44;5012839;28;20112;-75
2021/05/23 05:15:05;;;;;;;3.10;2.80;;;;;;;23.41;31.73;100331.41;5012720;28;20161;-73
2021/05/23 05:17:31;;;;;;;3.33;2.65;;;;;;;23.74;30.91;100332.13;5012758;28;20120;-74
2021/05/23 05:19:59;;;;;;;4.63;2.72;;;;;;;24.19;30.87;100342.59;5012888;28;20117;-74
2021/05/23 05:22:25;;;;;;;4.13;2.42;;;;;;;24.46;30.14;100333.66;5012879;28;20026;-73
2021/05/23 05:24:53;;;;;;;3.80;2.50;;;;;;;25.17;29.90;100339.06;5012672;28;20468;-72
2021/05/23 05:27:20;;;;;;;4.53;2.28;;;;;;;25.57;29.02;100344.97;5012380;28;20057;-73
2021/05/23 05:29:46;;;;;;;4.82;2.53;;;;;;;25.44;29.42;100352.75;5012117;28;20030;-74
2021/05/23 05:32:14;;;;;;;2.95;2.33;;;;;;;25.30;28.88;100345.50;5012521;28;20490;-73
2021/05/23 05:34:41;;;;;;;3.83;2.95;;;;;;;25.44;28.03;100349.91;5012174;28;20460;-74
2021/05/23 05:37:06;;;;;;;3.78;2.25;;;;;;;25.89;27.44;100352.34;5011936;28;20364;-73
2021/05/23 05:39:32;;;;;;;2.33;1.65;;;;;;;26.09;26.30;100343.44;5012257;28;20042;-74
2021/05/23 05:42:01;;;;;;;1.85;1.67;;;;;;;25.60;26.73;100335.47;5012217;28;20017;-75
2021/05/23 05:44:27;;;;;;;4.03;2.03;;;;;;;26.23;25.55;100351.44;5012329;28;20036;-74
2021/05/23 05:46:53;;;;;;;2.47;1.98;;;;;;;26.85;25.02;100354.28;5012058;28;20022;-74
2021/05/23 05:49:19;;;;;;;2.47;1.30;;;;;;;27.46;24.22;100368.06;5012231;28;20022;-74
2021/05/23 05:51:44;;;;;;;6.65;1.80;;;;;;;27.98;23.74;100375.53;5011983;28;20464;-75
2021/05/23 05:54:10;;;;;;;4.45;1.92;;;;;;;28.27;23.51;100357.03;5012091;28;20034;-75
2021/05/23 05:56:37;;;;;;;5.22;2.30;;;;;;;27.69;24.10;100376.78;5011979;28;20096;-75
2021/05/23 05:59:03;;;;;;;3.55;1.65;;;;;;;27.72;23.45;100380.78;5012063;28;20500;-75
2021/05/23 06:01:31;;;;;;;5.32;1.95;;;;;;;28.00;23.15;100384.41;5011846;28;20022;-75
2021/05/23 06:03:58;;;;;;;3.03;1.58;;;;;;;28.65;22.89;100394.44;5011999;28;20030;-75
2021/05/23 06:06:24;;;;;;;2.85;1.67;;;;;;;28.94;22.41;100382.44;5012259;28;20483;-75
2021/05/23 06:08:50;;;;;;;4.72;1.70;;;;;;;28.87;22.07;100376.22;5012144;28;20350;-76
2021/05/23 06:11:16;;;;;;;3.47;1.60;;;;;;;29.28;21.58;100377.44;5011906;28;20075;-75
2021/05/23 06:13:41;;;;;;;1.42;1.27;;;;;;;29.45;21.25;100374.91;4995325;28;20041;-75
2021/05/23 06:16:07;;;;;;;1.50;1.40;;;;;;;28.96;21.13;100384.78;5011928;28;20022;-75
2021/05/23 06:18:33;;;;;;;2.10;1.38;;;;;;;29.05;21.21;100381.88;5012045;28;20022;-74
2021/05/23 06:20:58;;;;;;;2.20;1.40;;;;;;;29.23;21.04;100383.84;5011788;28;20029;-75
2021/05/23 06:23:24;;;;;;;2.85;1.30;;;;;;;29.70;21.02;100397.38;5013266;28;20041;-76
2021/05/23 06:25:50;;;;;;;1.58;1.30;;;;;;;29.18;20.68;100393.88;5011751;28;20491;-75
2021/05/23 06:28:19;;;;;;;1.77;1.38;;;;;;;30.21;20.28;100407.78;5013509;28;20022;-75
2021/05/23 06:30:47;;;;;;;1.60;1.50;;;;;;;29.14;20.80;100407.63;5011979;28;20026;-76
2021/05/23 06:33:13;;;;;;;1.88;1.63;;;;;;;29.34;21.10;100414.81;5011966;28;20034;-75
2021/05/23 06:35:39;;;;;;;2.97;1.50;;;;;;;29.09;20.95;100416.09;5011946;28;20523;-74
2021/05/23 06:38:04;;;;;;;3.15;1.80;;;;;;;29.16;21.17;100418.59;5011794;28;20029;-79
2021/05/23 06:40:30;;;;;;;3.90;1.25;;;;;;;29.34;21.11;100420.53;5013408;28;20022;-88
2021/05/23 06:42:55;;;;;;;6.82;1.40;;;;;;;28.49;22.06;100422.66;5015365;28;20095;-77
2021/05/23 06:45:21;;;;;;;4.78;1.60;;;;;;;28.51;22.85;100418.03;5015717;28;20026;-77
2021/05/23 06:47:47;;;;;;;1.98;1.27;;;;;;;29.54;21.96;100425.69;5015929;28;20033;-77
2021/05/23 06:50:13;;;;;;;3.90;1.95;;;;;;;29.68;22.19;100410.63;5015668;28;20077;-77
2021/05/23 06:52:38;;;;;;;3.28;1.80;;;;;;;29.72;22.86;100412.03;5015765;28;20472;-77
2021/05/23 06:55:05;;;;;;;5.15;2.40;;;;;;;29.42;22.61;100413.19;5015529;28;20056;-77
2021/05/23 06:57:31;;;;;;;8.57;2.47;;;;;;;29.25;22.89;100406.28;5014841;28;20030;-77
2021/05/23 06:59:57;;;;;;;2.60;1.75;;;;;;;29.97;21.86;100404.16;5014863;28;20030;-76
2021/05/23 07:02:22;;;;;;;2.47;1.73;;;;;;;29.42;22.46;100416.81;5015275;28;20040;-77
2021/05/23 07:04:48;;;;;;;2.03;1.77;;;;;;;29.51;22.36;100416.00;5015398;28;20040;-76
2021/05/23 07:07:14;;;;;;;5.50;2.13;;;;;;;29.72;22.26;100409.16;5014939;28;20077;-76
2021/05/23 07:09:40;;;;;;;3.47;1.80;;;;;;;29.74;22.08;100420.13;5015210;28;20460;-76
2021/05/23 07:12:06;;;;;;;3.75;1.77;;;;;;;30.74;21.26;100421.25;5016061;28;20022;-75
2021/05/23 07:14:31;;;;;;;1.95;1.52;;;;;;;30.32;21.40;100424.41;5014921;28;20049;-76
2021/05/23 07:16:57;;;;;;;2.67;1.98;;;;;;;30.50;20.86;100424.19;5014956;28;20345;-77
2021/05/23 07:19:23;;;;;;;3.55;2.35;;;;;;;28.98;22.39;100433.81;5014614;28;20037;-77
2021/05/23 07:21:49;;;;;;;6.20;2.33;;;;;;;28.72;23.07;100436.28;5014628;28;20362;-77
2021/05/23 07:24:18;;;;;;;3.08;1.70;;;;;;;28.83;22.84;100433.69;5014722;28;20030;-76
2021/05/23 07:26:43;;;;;;;3.05;1.42;;;;;;;28.34;23.85;100442.56;5014945;28;20025;-76
2021/05/23 07:29:09;;;;;;;2.47;1.40;;;;;;;28.41;23.68;100447.97;5014700;28;20497;-76
2021/05/23 07:31:35;;;;;;;3.33;1.50;;;;;;;27.88;24.34;100434.00;5014903;28;20033;-76
2021/05/23 07:34:03;;;;;;;2.00;1.48;;;;;;;27.61;24.99;100437.63;5014604;28;20509;-75
2021/05/23 07:36:29;;;;;;;4.15;1.85;;;;;;;27.82;24.84;100428.13;5014662;28;20049;-75
2021/05/23 07:38:58;;;;;;;2.20;1.40;;;;;;;27.43;25.51;100438.34;5014396;28;20037;-79
2021/05/23 07:41:24;;;;;;;4.57;1.45;;;;;;;27.73;25.27;100436.69;5014533;28;20115;-77
2021/05/23 07:43:50;;;;;;;6.28;1.77;;;;;;;27.35;25.28;100443.59;5015446;28;20022;-75
2021/05/23 07:46:16;;;;;;;3.25;1.58;;;;;;;27.03;26.21;100447.75;5013983;28;20017;-78
2021/05/23 07:48:42;;;;;;;3.33;1.90;;;;;;;27.20;25.62;100442.59;5014414;28;20464;-79
2021/05/23 07:51:09;;;;;;;4.38;2.38;;;;;;;27.26;25.90;100440.72;5013989;28;20025;-79
2021/05/23 07:53:37;;;;;;;5.22;2.38;;;;;;;27.27;26.59;100435.78;5014157;28;20032;-75
2021/05/23 07:56:06;;;;;;;2.72;2.10;;;;;;;28.25;24.99;100426.19;5014102;28;20082;-73
2021/05/23 07:58:34;;;;;;;8.13;2.38;;;;;;;27.91;24.97;100421.59;5014026;28;20061;-74
2021/05/23 08:01:00;;;;;;;4.13;2.55;;;;;;;28.30;25.47;100430.47;5014189;28;20091;-75
2021/05/23 08:03:27;;;;;;;2.67;2.25;;;;;;;29.19;24.51;100441.34;5014121;28;20037;-74
2021/05/23 08:05:54;;;;;;;4.50;2.45;;;;;;;29.75;23.75;100444.66;5014147;28;20053;-74
2021/05/23 08:08:19;;;;;;;5.75;2.47;;;;;;;29.54;22.79;100440.81;5015244;28;20028;-75
2021/05/23 08:10:45;;;;;;;3.60;2.05;;;;;;;29.37;23.35;100437.56;5014063;28;20175;-73
2021/05/23 08:13:11;;;;;;;2.97;1.65;;;;;;;28.97;23.50;100435.06;5013997;28;20026;-75
2021/05/23 08:15:37;;;;;;;2.58;1.38;;;;;;;28.46;23.95;100438.72;5013298;28;20124;-73
2021/05/23 08:18:03;;;;;;;1.83;1.15;;;;;;;28.16;24.61;100444.13;5014756;28;20053;-74
2021/05/23 08:20:29;;;;;;;3.72;1.50;;;;;;;28.71;24.08;100449.78;5013753;28;20054;-75
2021/05/23 08:22:54;;;;;;;4.20;1.17;;;;;;;28.92;24.12;100438.56;5014140;28;20025;-77
2021/05/23 08:25:20;;;;;;;1.85;1.33;;;;;;;28.88;24.56;100447.34;5013577;28;20033;-77
2021/05/23 08:27:46;;;;;;;2.15;1.38;;;;;;;28.54;24.70;100442.03;5013708;28;20018;-77
2021/05/23 08:30:12;;;;;;;3.38;1.60;;;;;;;28.99;24.16;100440.31;5013809;28;20067;-77
2021/05/23 08:32:39;;;;;;;4.03;1.30;;;;;;;29.33;24.30;100433.28;5013487;28;20491;-76
2021/05/23 08:35:07;;;;;;;5.97;2.17;;;;;;;28.96;24.19;100424.88;5013444;28;20120;-76
2021/05/23 08:37:33;;;;;;;2.78;1.25;;;;;;;28.87;24.80;100439.22;5013291;28;20473;-77
2021/05/23 08:39:58;;;;;;;4.63;1.65;;;;;;;29.63;24.08;100432.16;5013456;28;20028;-75
2021/05/23 08:42:27;;;;;;;2.00;1.55;;;;;;;29.20;24.00;100434.31;5013360;28;20388;-76
2021/05/23 08:44:53;;;;;;;4.50;1.50;;;;;;;29.65;23.84;100418.13;5013230;28;20029;-77
2021/05/23 08:47:18;;;;;;;3.75;1.95;;;;;;;29.74;23.45;100415.19;5012957;28;20104;-77
2021/05/23 08:49:50;;;;;;;2.60;1.23;;;;;;;29.07;24.56;100419.41;5012725;28;20464;-76
2021/05/23 08:52:17;;;;;;;3.35;1.77;;;;;;;29.33;24.25;100413.22;5013277;28;20547;-77
2021/05/23 08:54:43;;;;;;;6.20;1.83;;;;;;;29.93;23.47;100415.00;5013825;28;20037;-77
2021/05/23 08:57:09;;;;;;;1.65;1.50;;;;;;;29.52;23.90;100408.19;5012363;28;20033;-77
2021/05/23 08:59:34;;;;;;;4.60;1.55;;;;;;;30.76;22.60;100417.88;5013071;28;20029;-76
2021/05/23 09:02:07;;;;;;;3.75;1.58;;;;;;;30.72;21.61;100423.81;5013206;28;20461;-76
2021/05/23 09:04:33;;;;;;;;;;;;;;;31.79;21.02;100434.75;5012375;28;20025;-77
2021/05/23 09:07:03;;;;;;;1.88;1.10;;;;;;;31.83;21.07;100430.91;5012906;28;20240;-77
2021/05/23 09:09:29;;;;;;;3.30;1.17;;;;;;;32.27;19.94;100419.88;5012670;28;20053;-77
2021/05/23 09:12:01;;;;;;;2.88;1.10;;;;;;;31.38;20.51;100438.94;5012322;28;20461;-77
2021/05/23 09:14:31;;;;;;;1.75;1.08;;;;;;;30.91;20.79;100440.84;5012902;28;20042;-77
2021/05/23 09:16:57;;;;;;;3.70;1.25;;;;;;;31.11;20.51;100440.06;5012802;28;20361;-76
2021/05/23 09:19:25;;;;;;;3.40;1.00;;;;;;;31.01;20.45;100445.16;5012582;28;20026;-77
2021/05/23 09:21:51;;;;;;;1.80;1.10;;;;;;;31.87;20.52;100440.13;5012771;28;20045;-78
2021/05/23 09:24:17;;;;;;;3.38;1.30;;;;;;;32.03;20.35;100448.16;5012667;28;20080;-76
2021/05/23 09:26:45;;;;;;;2.63;1.17;;;;;;;32.29;20.06;100453.94;5012477;28;20524;-76
2021/05/23 09:29:20;;;;;;;2.72;1.40;;;;;;;33.14;19.11;100447.66;5012016;28;20113;-77
2021/05/23 09:31:57;;;;;;;3.75;1.27;;;;;;;32.03;20.35;100454.69;5012663;28;20041;-77
2021/05/23 09:34:28;;;;;;;3.10;1.20;;;;;;;30.70;21.87;100460.06;5012735;28;20041;-77
2021/05/23 09:36:54;;;;;;;4.63;1.52;;;;;;;31.41;21.45;100455.19;5011952;28;20034;-77
2021/05/23 09:39:20;;;;;;;5.25;2.22;;;;;;;31.94;21.32;100456.94;5012419;28;20029;-77
2021/05/23 09:41:47;;;;;;;2.88;1.73;;;;;;;32.16;20.79;100447.75;5012285;28;20121;-76
2021/05/23 09:44:22;;;;;;;4.65;1.38;;;;;;;31.23;21.65;100431.13;5012446;28;20376;-77
2021/05/23 09:47:04;;;;;;;5.43;1.70;;;;;;;31.11;21.72;100440.88;5012284;28;20025;-77
2021/05/23 09:49:54;;;;;;;3.43;1.60;;;;;;;31.48;21.55;100440.38;5013843;28;20025;-77
2021/05/23 09:52:39;;;;;;;5.55;1.52;;;;;;;31.41;21.62;100423.56;5012548;28;20277;-76
2021/05/23 09:55:06;;;;;;;3.47;1.58;;;;;;;31.06;21.75;100406.31;5012225;28;20032;-75
2021/05/23 09:57:32;;;;;;;3.42;1.70;;;;;;;30.63;22.62;100409.56;5012101;28;20181;-75
2021/05/23 10:00:12;;;;;;;2.55;1.77;;;;;;;30.42;22.53;100416.50;5011885;28;20026;-75
2021/05/23 10:02:58;;;;;;;2.67;1.27;;;;;;;30.30;22.92;100417.56;5011661;28;20030;-75
2021/05/23 10:05:25;;;;;;;5.78;1.63;;;;;;;30.76;22.51;100430.16;5011833;28;20426;-75
2021/05/23 10:07:52;;;;;;;2.55;1.30;;;;;;;30.54;22.58;100444.09;5011991;28;20101;-75
2021/05/23 10:10:18;;;;;;;4.00;1.60;;;;;;;30.28;23.18;100441.03;5012374;28;20449;-76
2021/05/23 10:12:44;;;;;;;5.75;1.40;;;;;;;30.87;22.90;100454.59;5012066;28;20021;-75
2021/05/23 10:15:11;;;;;;;3.65;1.60;;;;;;;29.93;23.60;100452.31;5014244;28;20056;-76
2021/05/23 10:17:38;;;;;;;1.70;1.10;;;;;;;30.09;24.30;100463.31;5015890;28;20424;-75
2021/05/23 10:20:07;;;;;;;9.48;1.65;;;;;;;30.07;24.30;100442.94;5015280;28;20021;-74
2021/05/23 10:22:35;;;;;;;4.72;1.80;;;;;;;30.04;24.42;100457.47;4999567;28;20045;-74
2021/05/23 10:25:12;;;;;;;3.92;1.77;;;;;;;30.34;23.90;100458.34;5015866;28;20029;-74
2021/05/23 10:27:41;;;;;;;2.70;1.48;;;;;;;31.13;23.91;100458.41;5015800;28;20025;-75
2021/05/23 10:30:08;;;;;;;4.78;2.00;;;;;;;31.06;23.48;100464.59;5015533;28;20026;-76
2021/05/23 10:32:37;;;;;;;5.32;1.33;;;;;;;30.34;24.23;100479.22;5015916;28;20030;-75
2021/05/23 10:35:15;;;;;;;2.83;1.63;;;;;;;30.77;23.92;100486.28;5015701;28;20034;-74
2021/05/23 10:37:42;;;;;;;2.45;1.40;;;;;;;30.84;23.59;100492.91;5015782;28;20022;-74
2021/05/23 10:40:27;;;;;;;3.15;1.10;;;;;;;29.79;23.81;100485.41;5015653;28;20041;-74
2021/05/23 10:42:55;;;;;;;3.35;1.05;;;;;;;30.59;23.81;100480.75;5015753;28;20376;-74
2021/05/23 10:45:38;;;;;;;7.45;1.42;;;;;;;30.95;22.67;100475.91;5015846;28;20026;-75
2021/05/23 10:48:18;;;;;;;4.03;1.50;;;;;;;31.13;21.94;100475.66;5015647;28;20062;-75
2021/05/23 10:50:47;;;;;;;5.57;2.17;;;;;;;31.28;21.25;100435.41;5015745;28;20468;-75
2021/05/23 10:53:13;;;;;;;6.00;1.27;;;;;;;31.85;21.25;100465.72;5015527;28;20556;-76
2021/05/23 10:56:23;;;;;;;2.33;1.60;;;;;;;32.03;20.35;100454.69;5015589;28;20481;-73
2021/05/23 10:58:56;;;;;;;3.25;1.17;;;;;;;31.72;21.36;100438.09;5008496;28;20033;-73
2021/05/23 11:01:46;;;;;;;1.50;1.00;;;;;;;30.70;22.89;100437.09;5015558;28;20096;-73
2021/05/23 11:04:17;;;;;;;2.78;1.00;;;;;;;31.23;22.28;100427.47;5016655;28;20054;-76
2021/05/23 11:06:48;;;;;;;4.90;1.55;;;;;;;31.55;22.26;100439.97;5015221;28;20026;-72
2021/05/23 11:09:24;;;;;;;2.53;1.15;;;;;;;30.21;23.23;100419.25;5015174;28;20902;-73
2021/05/23 11:11:50;;;;;;;2.67;1.30;;;;;;;30.71;22.94;100413.63;5015186;28;20034;-74
2021/05/23 11:14:23;;;;;;;4.80;1.40;;;;;;;31.09;23.05;100411.84;5014747;28;20045;-74
2021/05/23 11:16:53;;;;;;;4.07;1.38;;;;;;;30.55;23.15;100410.44;5015995;28;20065;-77
2021/05/23 11:19:24;;;;;;;4.80;1.40;;;;;;;30.83;21.96;100416.66;5014901;28;20018;-77
2021/05/23 11:21:52;;;;;;;5.28;1.35;;;;;;;31.07;21.34;100396.41;5015990;28;20026;-75
2021/05/23 11:24:19;;;;;;;3.47;1.45;;;;;;;30.50;22.87;100400.44;5014767;28;20588;-78
2021/05/23 11:26:44;;;;;;;4.47;1.27;;;;;;;29.82;24.31;100409.06;5013953;28;20030;-77
2021/05/23 11:29:11;;;;;;;2.40;1.20;;;;;;;30.08;24.01;100400.69;5014615;28;20033;-76
2021/05/23 11:31:40;;;;;;;3.78;0.90;;;;;;;29.31;24.66;100381.41;5014627;28;20353;-77
2021/05/23 11:34:08;;;;;;;2.83;1.15;;;;;;;29.50;24.33;100403.69;5015859;28;20021;-76
2021/05/23 11:36:39;;;;;;;4.57;1.45;;;;;;;29.29;25.12;100401.16;5014925;28;20104;-77
2021/05/23 11:39:13;;;;;;;4.00;1.33;;;;;;;29.33;25.02;100396.03;5014522;28;20022;-77
2021/05/23 11:41:44;;;;;;;6.70;1.38;;;;;;;29.27;24.88;100390.19;5014489;28;20124;-77
2021/05/23 11:44:13;;;;;;;1.63;1.15;;;;;;;29.01;25.38;100395.59;5014367;28;20018;-77
2021/05/23 11:46:52;;;;;;;2.53;1.10;;;;;;;28.96;25.52;100401.97;5014705;28;20479;-78
2021/05/23 11:49:27;;;;;;;1.58;1.13;;;;;;;29.44;25.08;100384.81;5014406;28;20026;-77
2021/05/23 11:52:05;;;;;;;5.57;1.80;;;;;;;29.95;24.32;100373.09;5014421;28;20114;-78
2021/05/23 11:54:30;;;;;;;4.10;1.00;;;;;;;29.84;23.85;100383.56;5014338;28;20030;-77
2021/05/23 11:56:56;;;;;;;8.38;1.33;;;;;;;29.33;24.47;100373.91;5014340;28;20080;-77
2021/05/23 11:59:22;;;;;;;2.00;1.30;;;;;;;29.29;24.72;100372.50;5014343;28;20548;-76
2021/05/23 12:01:54;;;;;;;4.25;1.33;;;;;;;28.96;25.22;100379.06;5014217;28;20096;-76
2021/05/23 12:04:20;;;;;;;4.27;1.43;;;;;;;28.35;26.32;100384.06;5015073;28;20380;-76
2021/05/23 12:06:53;;;;;;;5.63;1.58;;;;;;;28.31;26.28;100384.19;5014024;28;20022;-76